createdAt,value
2022-12-17T00:02:35.506Z,11.40
2022-12-17T00:05:21.075Z,11.20
2022-12-17T00:08:06.346Z,11.15
2022-12-17T00:10:51.759Z,10.52
2022-12-17T00:13:39.394Z,10.88
2022-12-17T00:16:25.535Z,10.85
2022-12-17T00:19:11.065Z,10.38
2022-12-17T00:21:56.422Z,11.25
2022-12-17T00:24:42.480Z,12.07
2022-12-17T00:27:27.884Z,12.02
2022-12-17T00:30:13.087Z,11.77
2022-12-17T00:32:58.443Z,12.32
2022-12-17T00:35:44.055Z,13.55
2022-12-17T00:38:37.248Z,13.80
2022-12-17T00:41:22.435Z,12.88
2022-12-17T00:44:07.802Z,12.18
2022-12-17T00:46:54.456Z,13.65
2022-12-17T00:49:41.195Z,14.00
2022-12-17T00:52:26.578Z,12.45
2022-12-17T00:55:11.956Z,13.15
2022-12-17T00:57:57.389Z,13.27
2022-12-17T01:00:42.747Z,13.35
2022-12-17T01:03:32.054Z,11.70
2022-12-17T01:06:22.050Z,12.00
2022-12-17T01:09:07.550Z,10.93
2022-12-17T01:11:52.906Z,10.73
2022-12-17T01:14:43.411Z,10.57
2022-12-17T01:17:29.499Z,10.50
2022-12-17T01:20:14.921Z,10.63
2022-12-17T01:23:00.386Z,10.32
2022-12-17T01:25:45.651Z,10.65
2022-12-17T01:28:31.271Z,11.27
2022-12-17T01:31:16.737Z,10.70
2022-12-17T01:34:02.091Z,10.70
2022-12-17T01:36:47.384Z,10.05
2022-12-17T01:39:32.841Z,10.25
2022-12-17T01:42:18.516Z,11.35
2022-12-17T01:45:14.066Z,11.48
2022-12-17T01:48:13.205Z,12.35
2022-12-17T01:51:21.558Z,11.70
2022-12-17T01:54:09.931Z,11.43
2022-12-17T01:56:59.207Z,10.05
2022-12-17T02:00:02.646Z,10.18
2022-12-17T02:02:59.004Z,10.30
2022-12-17T02:05:52.597Z,10.32
2022-12-17T02:08:52.872Z,9.97
2022-12-17T02:12:11.038Z,9.02
2022-12-17T02:15:05.761Z,11.00
2022-12-17T02:17:57.955Z,10.80
2022-12-17T02:21:02.795Z,10.40
2022-12-17T02:24:15.614Z,12.55
2022-12-17T02:27:08.362Z,11.88
2022-12-17T02:30:09.692Z,11.13
2022-12-17T02:33:07.251Z,11.13
2022-12-17T02:36:08.435Z,10.50
2022-12-17T02:38:53.758Z,11.00
2022-12-17T02:41:56.616Z,11.35
2022-12-17T02:44:42.889Z,11.85
2022-12-17T02:47:29.748Z,12.40
2022-12-17T02:50:15.387Z,11.38
2022-12-17T02:53:05.019Z,10.95
2022-12-17T02:55:51.359Z,11.00
2022-12-17T02:58:36.954Z,9.52
2022-12-17T03:01:22.797Z,9.25
2022-12-17T03:04:08.251Z,9.15
2022-12-17T03:06:53.462Z,8.95
2022-12-17T03:09:39.578Z,8.73
2022-12-17T03:12:25.435Z,8.80
2022-12-17T03:15:11.100Z,8.57
2022-12-17T03:17:56.404Z,9.18
2022-12-17T03:20:42.204Z,10.48
2022-12-17T03:23:29.326Z,8.88
2022-12-17T03:26:22.436Z,9.85
2022-12-17T03:29:07.840Z,9.30
2022-12-17T03:31:53.633Z,8.20
2022-12-17T03:34:38.973Z,8.60
2022-12-17T03:37:24.680Z,8.70
2022-12-17T03:40:10.003Z,8.35
2022-12-17T03:42:55.515Z,8.68
2022-12-17T03:45:41.270Z,8.75
2022-12-17T03:48:29.131Z,8.05
2022-12-17T03:51:15.297Z,8.13
2022-12-17T03:54:00.976Z,7.88
2022-12-17T03:56:46.771Z,8.13
2022-12-17T03:59:32.230Z,9.05
2022-12-17T04:02:17.824Z,8.70
2022-12-17T04:05:03.516Z,8.80
2022-12-17T04:07:48.922Z,8.05
2022-12-17T04:10:34.297Z,8.68
2022-12-17T04:13:19.754Z,9.25
2022-12-17T04:16:05.241Z,9.63
2022-12-17T04:18:50.570Z,10.48
2022-12-17T04:21:35.889Z,10.27
2022-12-17T04:24:21.198Z,10.25
2022-12-17T04:27:06.602Z,10.30
2022-12-17T04:29:51.877Z,9.18
2022-12-17T04:32:37.204Z,8.93
2022-12-17T04:35:23.231Z,9.15
2022-12-17T04:38:09.071Z,9.68
2022-12-17T04:40:54.667Z,13.32
2022-12-17T04:43:39.961Z,10.70
2022-12-17T04:46:25.786Z,8.65
2022-12-17T04:49:11.273Z,7.80
2022-12-17T04:51:56.504Z,6.68
2022-12-17T04:54:42.126Z,6.22
2022-12-17T04:57:27.593Z,7.05
2022-12-17T05:00:14.152Z,6.45
2022-12-17T05:02:59.617Z,6.93
2022-12-17T05:05:45.545Z,8.43
2022-12-17T05:08:30.900Z,9.65
2022-12-17T05:11:21.660Z,13.98
2022-12-17T05:14:07.187Z,10.88
2022-12-17T05:16:52.650Z,8.63
2022-12-17T05:19:37.932Z,7.28
2022-12-17T05:22:23.442Z,7.18
2022-12-17T05:25:09.447Z,6.07
2022-12-17T05:27:54.813Z,5.88
2022-12-17T05:30:40.133Z,6.30
2022-12-17T05:33:25.520Z,5.90
2022-12-17T05:36:11.052Z,5.40
2022-12-17T05:38:56.598Z,5.47
2022-12-17T05:41:42.364Z,6.00
2022-12-17T05:44:27.692Z,5.32
2022-12-17T05:47:12.936Z,5.85
2022-12-17T05:49:58.391Z,5.50
2022-12-17T05:52:43.889Z,5.53
2022-12-17T05:55:29.475Z,5.55
2022-12-17T05:58:26.687Z,5.78
2022-12-17T06:01:16.681Z,5.93
2022-12-17T06:04:02.469Z,5.57
2022-12-17T06:06:48.434Z,5.38
2022-12-17T06:09:33.761Z,5.50
2022-12-17T06:12:19.753Z,5.38
2022-12-17T06:15:05.220Z,5.70
2022-12-17T06:17:50.631Z,5.80
2022-12-17T06:20:36.065Z,5.88
2022-12-17T06:23:24.240Z,6.15
2022-12-17T06:26:13.858Z,6.10
2022-12-17T06:29:00.327Z,6.07
2022-12-17T06:31:46.369Z,5.78
2022-12-17T06:34:32.194Z,5.93
2022-12-17T06:37:17.608Z,5.38
2022-12-17T06:40:02.895Z,5.85
2022-12-17T06:42:48.357Z,5.53
2022-12-17T06:45:34.002Z,5.72
2022-12-17T06:48:27.442Z,5.57
2022-12-17T06:51:13.984Z,5.53
2022-12-17T06:54:00.848Z,5.97
2022-12-17T06:56:46.773Z,7.13
2022-12-17T06:59:32.068Z,7.07
2022-12-17T07:02:17.644Z,7.80
2022-12-17T07:05:03.035Z,8.30
2022-12-17T07:07:48.769Z,6.85
2022-12-17T07:10:34.230Z,6.30
2022-12-17T07:13:26.107Z,5.97
2022-12-17T07:16:12.448Z,6.50
2022-12-17T07:18:58.309Z,6.63
2022-12-17T07:21:43.728Z,5.93
2022-12-17T07:24:29.468Z,6.28
2022-12-17T07:27:14.808Z,6.22
2022-12-17T07:30:00.204Z,6.32
2022-12-17T07:32:45.753Z,6.38
2022-12-17T07:35:31.416Z,6.63
2022-12-17T07:38:22.260Z,6.80
2022-12-17T07:41:07.617Z,6.22
2022-12-17T07:43:53.705Z,6.47
2022-12-17T07:46:39.528Z,5.88
2022-12-17T07:49:26.086Z,5.63
2022-12-17T07:52:12.183Z,6.38
2022-12-17T07:54:58.026Z,7.57
2022-12-17T07:57:43.885Z,7.32
2022-12-17T08:00:29.698Z,7.15
2022-12-17T08:03:19.707Z,6.82
2022-12-17T08:06:05.108Z,6.60
2022-12-17T08:08:50.419Z,6.38
2022-12-17T08:11:35.888Z,6.53
2022-12-17T08:14:21.276Z,6.63
2022-12-17T08:17:06.855Z,6.20
2022-12-17T08:19:52.316Z,6.50
2022-12-17T08:22:37.647Z,6.75
2022-12-17T08:25:23.606Z,6.00
2022-12-17T08:28:48.587Z,6.50
2022-12-17T08:31:20.996Z,6.25
2022-12-17T08:34:08.079Z,6.47
2022-12-17T08:36:54.006Z,7.10
2022-12-17T08:39:39.520Z,7.10
2022-12-17T08:42:24.837Z,7.35
2022-12-17T08:45:10.248Z,7.63
2022-12-17T08:47:59.220Z,7.85
2022-12-17T08:50:49.351Z,5.37
2022-12-17T08:53:35.193Z,7.82
2022-12-17T08:56:21.255Z,7.43
2022-12-17T08:59:06.452Z,8.27
2022-12-17T09:01:51.854Z,9.70
2022-12-17T09:04:37.442Z,9.40
2022-12-17T09:07:22.803Z,9.48
2022-12-17T09:10:08.272Z,10.38
2022-12-17T09:12:53.795Z,10.68
2022-12-17T09:15:39.234Z,10.52
2022-12-17T09:18:24.585Z,10.35
2022-12-17T09:21:13.776Z,11.23
2022-12-17T09:23:59.656Z,9.57
2022-12-17T09:26:45.080Z,10.30
2022-12-17T09:29:30.541Z,8.65
2022-12-17T09:32:16.035Z,9.32
2022-12-17T09:35:01.567Z,9.82
2022-12-17T09:37:46.991Z,9.98
2022-12-17T09:40:39.921Z,11.07
2022-12-17T09:43:39.907Z,10.13
2022-12-17T09:46:40.517Z,9.48
2022-12-17T09:49:35.822Z,10.23
2022-12-17T09:52:33.003Z,9.98
2022-12-17T09:55:19.888Z,10.32
2022-12-17T09:58:07.880Z,10.70
2022-12-17T10:00:59.156Z,11.02
2022-12-17T10:03:48.069Z,10.38
2022-12-17T10:06:53.712Z,10.73
2022-12-17T10:09:39.125Z,12.05
2022-12-17T10:12:33.675Z,10.50
2022-12-17T10:15:19.614Z,10.68
2022-12-17T10:18:05.039Z,9.90
2022-12-17T10:21:02.099Z,10.35
2022-12-17T10:23:50.289Z,9.63
2022-12-17T10:26:44.469Z,10.45
2022-12-17T10:29:43.863Z,10.68
2022-12-17T10:32:35.606Z,14.73
2022-12-17T10:35:48.706Z,13.60
2022-12-17T10:38:47.327Z,12.15
2022-12-17T10:41:53.180Z,12.63
2022-12-17T10:44:45.191Z,12.73
2022-12-17T10:47:39.393Z,12.85
2022-12-17T10:50:28.083Z,12.65
2022-12-17T10:53:13.515Z,11.85
2022-12-17T10:56:15.012Z,13.35
2022-12-17T10:59:07.603Z,13.02
2022-12-17T11:01:53.324Z,13.25
2022-12-17T11:04:44.869Z,14.48
2022-12-17T11:07:36.456Z,13.60
2022-12-17T11:10:23.831Z,13.40
2022-12-17T11:13:15.368Z,13.73
2022-12-17T11:16:20.032Z,13.98
2022-12-17T11:19:21.472Z,13.82
2022-12-17T11:22:11.144Z,13.98
2022-12-17T11:25:02.872Z,13.77
2022-12-17T11:27:54.651Z,14.13
2022-12-17T11:30:40.480Z,14.30
2022-12-17T11:33:49.026Z,14.55
2022-12-17T11:36:42.087Z,13.82
2022-12-17T11:39:48.839Z,13.90
2022-12-17T11:42:44.307Z,14.30
2022-12-17T11:45:45.397Z,14.25
2022-12-17T11:49:26.408Z,14.02
2022-12-17T11:52:25.719Z,13.82
2022-12-17T11:55:26.040Z,14.63
2022-12-17T11:58:22.995Z,12.90
2022-12-17T12:01:33.233Z,14.80
2022-12-17T12:04:21.840Z,15.05
2022-12-17T12:07:19.349Z,14.77
2022-12-17T12:10:16.063Z,14.45
2022-12-17T12:13:10.626Z,15.82
2022-12-17T12:18:58.742Z,13.57
2022-12-17T12:21:57.106Z,14.77
2022-12-17T12:24:52.323Z,13.98
2022-12-17T12:27:58.942Z,13.75
2022-12-17T12:30:53.454Z,14.48
2022-12-17T12:36:50.199Z,14.10
2022-12-17T12:39:45.332Z,13.20
2022-12-17T12:42:42.256Z,13.75
2022-12-17T12:46:02.452Z,14.70
2022-12-17T12:49:03.589Z,15.27
2022-12-17T12:51:53.310Z,15.25
2022-12-17T12:54:49.253Z,15.35
2022-12-17T12:57:52.463Z,14.98
2022-12-17T13:00:46.485Z,14.38
2022-12-17T13:03:54.272Z,15.25
2022-12-17T13:06:45.441Z,14.10
2022-12-17T13:09:15.386Z,14.77
2022-12-17T13:11:46.378Z,15.40
2022-12-17T13:14:24.305Z,16.45
2022-12-17T13:16:55.695Z,15.80
2022-12-17T13:19:31.310Z,15.13
2022-12-17T13:22:11.748Z,16.60
2022-12-17T13:24:38.727Z,14.82
2022-12-17T13:27:25.849Z,16.55
2022-12-17T13:29:52.675Z,16.20
2022-12-17T13:32:45.761Z,16.02
2022-12-17T13:35:43.957Z,16.63
2022-12-17T13:38:19.913Z,16.58
2022-12-17T13:41:09.587Z,16.05
2022-12-17T13:43:49.471Z,15.40
2022-12-17T13:46:28.480Z,16.15
2022-12-17T13:49:01.253Z,16.08
2022-12-17T13:51:33.912Z,17.02
2022-12-17T13:54:03.291Z,16.58
2022-12-17T13:56:37.662Z,16.33
2022-12-17T13:59:09.286Z,15.93
2022-12-17T14:01:46.252Z,16.40
2022-12-17T14:04:33.562Z,16.73
2022-12-17T14:07:04.704Z,17.15
2022-12-17T14:09:42.741Z,16.48
2022-12-17T14:12:23.915Z,15.98
2022-12-17T14:14:59.865Z,16.00
2022-12-17T14:17:29.044Z,17.40
2022-12-17T14:20:05.158Z,16.17
2022-12-17T14:22:38.964Z,16.40
2022-12-17T14:25:14.839Z,16.85
2022-12-17T14:27:49.889Z,16.30
2022-12-17T14:31:02.589Z,15.23
2022-12-17T14:33:33.421Z,15.20
2022-12-17T14:36:25.889Z,15.10
2022-12-17T14:38:56.145Z,15.10
2022-12-17T14:41:44.551Z,16.38
2022-12-17T14:44:25.015Z,15.50
2022-12-17T14:47:08.753Z,15.52
2022-12-17T14:49:39.555Z,16.08
2022-12-17T14:52:14.492Z,16.70
2022-12-17T14:54:47.591Z,16.60
2022-12-17T14:57:22.663Z,18.23
2022-12-17T14:59:50.793Z,18.17
2022-12-17T15:02:23.957Z,18.13
2022-12-17T15:04:52.165Z,16.80
2022-12-17T15:07:27.309Z,16.08
2022-12-17T15:09:55.488Z,16.42
2022-12-17T15:12:23.901Z,17.02
2022-12-17T15:14:50.890Z,16.42
2022-12-17T15:17:17.950Z,18.35
2022-12-17T15:19:44.812Z,17.75
2022-12-17T15:22:16.820Z,17.45
2022-12-17T15:24:45.476Z,17.15
2022-12-17T15:27:17.035Z,17.55
2022-12-17T15:29:45.879Z,18.42
2022-12-17T15:32:19.597Z,18.75
2022-12-17T15:34:47.006Z,18.10
2022-12-17T15:37:17.014Z,18.27
2022-12-17T15:39:45.621Z,19.45
2022-12-17T15:42:31.162Z,20.45
2022-12-17T15:44:57.954Z,18.63
2022-12-17T15:47:24.742Z,18.42
2022-12-17T15:49:51.571Z,17.55
2022-12-17T15:52:18.356Z,17.02
2022-12-17T15:54:45.237Z,16.60
2022-12-17T15:57:18.255Z,16.58
2022-12-17T15:59:45.508Z,15.60
2022-12-17T16:02:12.812Z,15.98
2022-12-17T16:04:40.902Z,15.85
2022-12-17T16:07:08.060Z,17.63
2022-12-17T16:09:34.964Z,16.83
2022-12-17T16:12:01.986Z,16.80
2022-12-17T16:14:28.978Z,15.10
2022-12-17T16:16:56.304Z,16.85
2022-12-17T16:19:24.547Z,15.38
2022-12-17T16:21:51.801Z,16.05
2022-12-17T16:24:19.837Z,15.88
2022-12-17T16:26:46.911Z,15.82
2022-12-17T16:29:14.926Z,16.73
2022-12-17T16:31:42.047Z,15.88
2022-12-17T16:34:10.525Z,16.38
2022-12-17T16:36:37.471Z,18.35
2022-12-17T16:39:05.376Z,22.85
2022-12-17T16:41:32.524Z,27.92
2022-12-17T16:43:59.487Z,28.33
2022-12-17T16:46:30.990Z,28.60
2022-12-17T16:49:04.548Z,22.98
2022-12-17T16:53:59.581Z,18.38
2022-12-17T16:56:28.635Z,18.92
2022-12-17T16:58:56.373Z,17.95
2022-12-17T17:01:26.283Z,20.80
2022-12-17T17:03:53.545Z,18.70
2022-12-17T17:06:20.797Z,21.10
2022-12-17T17:08:47.778Z,22.67
2022-12-17T17:11:23.058Z,20.58
2022-12-17T17:13:52.171Z,21.30
2022-12-17T17:16:20.966Z,20.67
2022-12-17T17:18:48.324Z,20.35
2022-12-17T17:21:16.802Z,20.45
2022-12-17T17:23:44.154Z,21.75
2022-12-17T17:26:11.232Z,22.35
2022-12-17T17:28:38.920Z,20.70
2022-12-17T17:31:09.090Z,22.77
2022-12-17T17:33:38.669Z,23.75
2022-12-17T17:36:11.082Z,22.52
2022-12-17T17:38:40.022Z,22.85
2022-12-17T17:41:09.426Z,22.70
2022-12-17T17:43:36.206Z,22.25
2022-12-17T17:46:07.216Z,21.77
2022-12-17T17:48:35.283Z,22.88
2022-12-17T17:51:08.729Z,23.70
2022-12-17T17:53:35.930Z,22.00
2022-12-17T17:56:17.381Z,22.70
2022-12-17T17:58:47.319Z,22.40
2022-12-17T18:01:20.741Z,24.58
2022-12-17T18:03:47.719Z,23.35
2022-12-17T18:06:15.121Z,24.08
2022-12-17T18:08:42.828Z,23.10
2022-12-17T18:11:12.030Z,21.33
2022-12-17T18:13:57.762Z,22.40
2022-12-17T18:16:28.138Z,23.27
2022-12-17T18:18:59.213Z,22.10
2022-12-17T18:21:29.919Z,21.00
2022-12-17T18:24:04.069Z,20.38
2022-12-17T18:26:36.444Z,20.35
2022-12-17T18:29:11.273Z,22.38
2022-12-17T18:31:38.842Z,22.35
2022-12-17T18:34:06.999Z,21.83
2022-12-17T18:36:37.355Z,22.67
2022-12-17T18:39:09.031Z,21.92
2022-12-17T18:41:54.350Z,22.35
2022-12-17T18:44:21.368Z,22.73
2022-12-17T18:46:48.986Z,22.38
2022-12-17T18:49:18.722Z,21.60
2022-12-17T18:51:47.712Z,22.02
2022-12-17T18:54:21.258Z,22.65
2022-12-17T18:57:04.000Z,21.40
2022-12-17T18:59:31.424Z,20.88
2022-12-17T19:02:00.055Z,22.17
2022-12-17T19:04:27.507Z,23.52
2022-12-17T19:06:54.894Z,24.13
2022-12-17T19:09:31.340Z,23.70
2022-12-17T19:11:58.999Z,23.70
2022-12-17T19:14:26.277Z,23.00
2022-12-17T19:16:55.167Z,23.13
2022-12-17T19:19:23.361Z,21.77
2022-12-17T19:21:52.212Z,22.70
2022-12-17T19:24:21.536Z,23.55
2022-12-17T19:26:49.563Z,22.92
2022-12-17T19:29:17.701Z,23.15
2022-12-17T19:31:45.834Z,25.05
2022-12-17T19:34:15.030Z,23.67
2022-12-17T19:36:42.971Z,24.20
2022-12-17T19:39:15.233Z,23.85
2022-12-17T19:41:42.232Z,21.80
2022-12-17T19:44:12.993Z,22.98
2022-12-17T19:46:40.400Z,25.08
2022-12-17T19:49:08.573Z,25.55
2022-12-17T19:51:38.868Z,25.10
2022-12-17T19:54:08.733Z,24.05
2022-12-17T19:56:36.568Z,23.83
2022-12-17T19:59:07.381Z,23.23
2022-12-17T20:01:41.317Z,21.98
2022-12-17T20:06:36.519Z,19.63
2022-12-17T20:09:05.247Z,21.23
2022-12-17T20:11:35.876Z,23.02
2022-12-17T20:14:09.358Z,24.08
2022-12-17T20:16:46.739Z,17.80
2022-12-17T20:19:22.205Z,22.63
2022-12-17T20:21:50.066Z,22.67
2022-12-17T20:24:17.608Z,22.88
2022-12-17T20:26:46.413Z,22.45
2022-12-17T20:29:13.439Z,21.90
2022-12-17T20:31:44.378Z,21.75
2022-12-17T20:34:16.035Z,22.20
2022-12-17T20:36:43.808Z,22.83
2022-12-17T20:39:11.649Z,23.17
2022-12-17T20:41:40.298Z,22.98
2022-12-17T20:44:11.811Z,23.35
2022-12-17T20:46:41.190Z,22.17
2022-12-17T20:49:08.682Z,22.15
2022-12-17T20:51:35.731Z,22.25
2022-12-17T20:54:03.422Z,21.85
2022-12-17T20:56:33.584Z,21.05
2022-12-17T20:59:05.461Z,22.35
2022-12-17T21:01:34.730Z,21.98
2022-12-17T21:04:02.325Z,22.55
2022-12-17T21:06:37.172Z,23.70
2022-12-17T21:09:04.546Z,23.13
2022-12-17T21:11:33.275Z,23.20
2022-12-17T21:14:09.263Z,23.55
2022-12-17T21:16:37.485Z,21.92
2022-12-17T21:19:05.992Z,24.10
2022-12-17T21:21:36.007Z,22.20
2022-12-17T21:24:03.359Z,24.05
2022-12-17T21:26:32.882Z,24.42
2022-12-17T21:29:01.420Z,22.48
2022-12-17T21:31:31.143Z,21.25
2022-12-17T21:34:00.927Z,20.88
2022-12-17T21:36:30.048Z,19.98
2022-12-17T21:38:58.764Z,20.80
2022-12-17T21:41:29.455Z,20.75
2022-12-17T21:44:04.808Z,19.23
2022-12-17T21:46:32.458Z,20.05
2022-12-17T21:49:01.491Z,21.55
2022-12-17T21:51:29.496Z,21.55
2022-12-17T21:53:59.096Z,22.10
2022-12-17T21:56:26.614Z,23.02
2022-12-17T21:59:01.067Z,22.40
2022-12-17T22:01:31.894Z,22.20
2022-12-17T22:04:00.769Z,19.48
2022-12-17T22:06:34.832Z,21.00
2022-12-17T22:09:28.670Z,18.48
2022-12-17T22:12:17.090Z,17.52
2022-12-17T22:14:44.253Z,18.73
2022-12-17T22:17:11.108Z,19.05
2022-12-17T22:19:38.100Z,19.90
2022-12-17T22:22:04.915Z,20.15
2022-12-17T22:24:35.894Z,22.00
2022-12-17T22:27:03.683Z,19.15
2022-12-17T22:29:50.634Z,20.48
2022-12-17T22:32:35.835Z,19.15
2022-12-17T22:36:05.074Z,19.83
2022-12-17T22:41:26.941Z,20.23
2022-12-17T22:44:11.931Z,19.08
2022-12-17T22:44:41.941Z,18.25
2022-12-17T22:46:18.116Z,19.38
2022-12-17T22:48:45.231Z,18.15
2022-12-17T22:51:14.752Z,18.55
2022-12-17T22:53:51.167Z,17.13
2022-12-17T22:57:11.196Z,16.35
2022-12-17T22:59:06.933Z,16.45
2022-12-17T23:01:34.108Z,18.63
2022-12-17T23:04:02.769Z,20.33
2022-12-17T23:06:29.720Z,19.65
2022-12-17T23:08:57.582Z,20.45
2022-12-17T23:11:26.235Z,19.70
2022-12-17T23:13:53.881Z,18.83
2022-12-17T23:16:20.983Z,19.08
2022-12-17T23:18:49.704Z,18.88
2022-12-17T23:21:19.563Z,18.17
2022-12-17T23:23:46.852Z,17.25
2022-12-17T23:26:18.028Z,18.48
2022-12-17T23:28:45.647Z,20.17
2022-12-17T23:31:17.883Z,19.40
2022-12-17T23:33:45.339Z,21.15
2022-12-17T23:36:21.122Z,20.05
2022-12-17T23:38:48.465Z,20.70
2022-12-17T23:41:27.461Z,20.55
2022-12-17T23:43:54.666Z,19.10
2022-12-17T23:46:23.133Z,19.27
2022-12-17T23:48:50.964Z,20.15
2022-12-17T23:51:19.763Z,19.15
2022-12-17T23:53:46.608Z,21.30
2022-12-17T23:56:16.686Z,20.80
2022-12-17T23:58:45.644Z,19.73
